sensor_id;sensor_type;location;lat;lon;timestamp;P1;durP1;ratioP1;P2;durP2;ratioP2
59052;SDS011;44843;44.728;10.396;2023-11-21T00:02:05;32.95;;;20.38;;
59052;SDS011;44843;44.728;10.396;2023-11-21T00:04:31;30.23;;;18.92;;
59052;SDS011;44843;44.728;10.396;2023-11-21T00:06:56;33.20;;;19.10;;
59052;SDS011;44843;44.728;10.396;2023-11-21T00:09:21;30.70;;;19.55;;
59052;SDS011;44843;44.728;10.396;2023-11-21T00:11:47;28.95;;;18.00;;
59052;SDS011;44843;44.728;10.396;2023-11-21T00:14:12;27.42;;;16.88;;
59052;SDS011;44843;44.728;10.396;2023-11-21T00:16:39;35.08;;;18.17;;
59052;SDS011;44843;44.728;10.396;2023-11-21T00:19:05;29.45;;;17.38;;
59052;SDS011;44843;44.728;10.396;2023-11-21T00:21:30;33.70;;;19.60;;
59052;SDS011;44843;44.728;10.396;2023-11-21T00:23:56;35.88;;;19.60;;
59052;SDS011;44843;44.728;10.396;2023-11-21T00:26:21;34.92;;;19.13;;
59052;SDS011;44843;44.728;10.396;2023-11-21T00:28:46;37.78;;;21.90;;
59052;SDS011;44843;44.728;10.396;2023-11-21T00:31:12;31.27;;;19.83;;
59052;SDS011;44843;44.728;10.396;2023-11-21T00:33:37;35.17;;;20.85;;
59052;SDS011;44843;44.728;10.396;2023-11-21T00:36:02;33.97;;;21.63;;
59052;SDS011;44843;44.728;10.396;2023-11-21T00:38:28;34.58;;;21.73;;
59052;SDS011;44843;44.728;10.396;2023-11-21T00:40:53;37.22;;;21.80;;
59052;SDS011;44843;44.728;10.396;2023-11-21T00:43:24;44.92;;;22.90;;
59052;SDS011;44843;44.728;10.396;2023-11-21T00:45:49;40.45;;;23.75;;
59052;SDS011;44843;44.728;10.396;2023-11-21T00:48:14;35.55;;;23.05;;
59052;SDS011;44843;44.728;10.396;2023-11-21T00:50:40;43.22;;;24.55;;
59052;SDS011;44843;44.728;10.396;2023-11-21T00:53:05;40.60;;;23.38;;
59052;SDS011;44843;44.728;10.396;2023-11-21T00:55:32;39.38;;;23.80;;
59052;SDS011;44843;44.728;10.396;2023-11-21T00:57:58;45.30;;;25.02;;
59052;SDS011;44843;44.728;10.396;2023-11-21T01:00:24;44.35;;;23.98;;
59052;SDS011;44843;44.728;10.396;2023-11-21T01:02:50;39.70;;;24.48;;
59052;SDS011;44843;44.728;10.396;2023-11-21T01:05:15;45.85;;;25.63;;
59052;SDS011;44843;44.728;10.396;2023-11-21T01:07:41;43.67;;;26.55;;
59052;SDS011;44843;44.728;10.396;2023-11-21T01:10:06;43.55;;;24.98;;
59052;SDS011;44843;44.728;10.396;2023-11-21T01:12:34;46.60;;;25.75;;
59052;SDS011;44843;44.728;10.396;2023-11-21T01:15:01;44.63;;;26.55;;
59052;SDS011;44843;44.728;10.396;2023-11-21T01:17:27;43.20;;;24.98;;
59052;SDS011;44843;44.728;10.396;2023-11-21T01:19:52;50.08;;;26.85;;
59052;SDS011;44843;44.728;10.396;2023-11-21T01:22:17;51.72;;;26.75;;
59052;SDS011;44843;44.728;10.396;2023-11-21T01:24:47;44.90;;;26.33;;
59052;SDS011;44843;44.728;10.396;2023-11-21T01:27:12;45.47;;;26.17;;
59052;SDS011;44843;44.728;10.396;2023-11-21T01:29:38;48.05;;;28.88;;
59052;SDS011;44843;44.728;10.396;2023-11-21T01:32:03;47.75;;;28.17;;
59052;SDS011;44843;44.728;10.396;2023-11-21T01:34:29;50.28;;;27.55;;
59052;SDS011;44843;44.728;10.396;2023-11-21T01:36:55;54.13;;;28.48;;
59052;SDS011;44843;44.728;10.396;2023-11-21T01:39:21;51.53;;;28.63;;
59052;SDS011;44843;44.728;10.396;2023-11-21T01:41:49;47.78;;;28.42;;
59052;SDS011;44843;44.728;10.396;2023-11-21T01:44:15;56.33;;;29.35;;
59052;SDS011;44843;44.728;10.396;2023-11-21T01:46:42;52.78;;;28.80;;
59052;SDS011;44843;44.728;10.396;2023-11-21T01:49:07;51.53;;;29.48;;
59052;SDS011;44843;44.728;10.396;2023-11-21T01:51:34;52.58;;;31.60;;
59052;SDS011;44843;44.728;10.396;2023-11-21T01:54:01;56.67;;;31.23;;
59052;SDS011;44843;44.728;10.396;2023-11-21T01:56:30;52.30;;;29.60;;
59052;SDS011;44843;44.728;10.396;2023-11-21T01:58:56;60.92;;;31.80;;
59052;SDS011;44843;44.728;10.396;2023-11-21T02:01:22;55.50;;;29.65;;
59052;SDS011;44843;44.728;10.396;2023-11-21T02:03:47;55.35;;;31.00;;
59052;SDS011;44843;44.728;10.396;2023-11-21T02:06:13;53.90;;;31.27;;
59052;SDS011;44843;44.728;10.396;2023-11-21T02:08:38;56.30;;;31.77;;
59052;SDS011;44843;44.728;10.396;2023-11-21T02:11:04;57.55;;;30.60;;
59052;SDS011;44843;44.728;10.396;2023-11-21T02:13:30;53.88;;;30.58;;
59052;SDS011;44843;44.728;10.396;2023-11-21T02:15:56;54.33;;;30.10;;
59052;SDS011;44843;44.728;10.396;2023-11-21T02:18:23;53.75;;;30.63;;
59052;SDS011;44843;44.728;10.396;2023-11-21T02:20:48;55.97;;;30.55;;
59052;SDS011;44843;44.728;10.396;2023-11-21T02:23:14;55.72;;;31.30;;
59052;SDS011;44843;44.728;10.396;2023-11-21T02:25:39;58.80;;;32.90;;
59052;SDS011;44843;44.728;10.396;2023-11-21T02:28:05;54.33;;;29.10;;
59052;SDS011;44843;44.728;10.396;2023-11-21T02:30:31;57.35;;;31.98;;
59052;SDS011;44843;44.728;10.396;2023-11-21T02:32:57;54.28;;;30.13;;
59052;SDS011;44843;44.728;10.396;2023-11-21T02:35:23;58.08;;;29.83;;
59052;SDS011;44843;44.728;10.396;2023-11-21T02:37:50;54.42;;;30.60;;
59052;SDS011;44843;44.728;10.396;2023-11-21T02:40:17;56.13;;;31.38;;
59052;SDS011;44843;44.728;10.396;2023-11-21T02:42:50;58.57;;;31.53;;
59052;SDS011;44843;44.728;10.396;2023-11-21T02:45:19;57.40;;;32.50;;
59052;SDS011;44843;44.728;10.396;2023-11-21T02:47:46;53.95;;;31.85;;
59052;SDS011;44843;44.728;10.396;2023-11-21T02:50:12;59.50;;;30.98;;
59052;SDS011;44843;44.728;10.396;2023-11-21T02:52:38;54.33;;;29.83;;
59052;SDS011;44843;44.728;10.396;2023-11-21T02:55:05;56.05;;;30.48;;
59052;SDS011;44843;44.728;10.396;2023-11-21T02:57:32;56.33;;;32.13;;
59052;SDS011;44843;44.728;10.396;2023-11-21T02:59:58;53.17;;;29.48;;
59052;SDS011;44843;44.728;10.396;2023-11-21T03:02:24;51.70;;;28.63;;
59052;SDS011;44843;44.728;10.396;2023-11-21T03:04:50;51.97;;;30.05;;
59052;SDS011;44843;44.728;10.396;2023-11-21T03:07:16;53.90;;;29.08;;
59052;SDS011;44843;44.728;10.396;2023-11-21T03:09:42;48.38;;;27.95;;
59052;SDS011;44843;44.728;10.396;2023-11-21T03:12:07;54.13;;;29.42;;
59052;SDS011;44843;44.728;10.396;2023-11-21T03:14:34;45.67;;;29.05;;
59052;SDS011;44843;44.728;10.396;2023-11-21T03:16:59;55.10;;;29.98;;
59052;SDS011;44843;44.728;10.396;2023-11-21T03:19:25;49.15;;;28.83;;
59052;SDS011;44843;44.728;10.396;2023-11-21T03:21:50;53.88;;;28.80;;
59052;SDS011;44843;44.728;10.396;2023-11-21T03:24:18;47.28;;;29.48;;
59052;SDS011;44843;44.728;10.396;2023-11-21T03:26:45;51.70;;;28.88;;
59052;SDS011;44843;44.728;10.396;2023-11-21T03:29:11;54.60;;;31.05;;
59052;SDS011;44843;44.728;10.396;2023-11-21T03:31:37;51.85;;;29.05;;
59052;SDS011;44843;44.728;10.396;2023-11-21T03:34:02;47.97;;;28.27;;
59052;SDS011;44843;44.728;10.396;2023-11-21T03:36:28;49.10;;;27.80;;
59052;SDS011;44843;44.728;10.396;2023-11-21T03:38:54;53.05;;;26.50;;
59052;SDS011;44843;44.728;10.396;2023-11-21T03:41:20;45.65;;;27.48;;
59052;SDS011;44843;44.728;10.396;2023-11-21T03:43:46;46.25;;;27.38;;
59052;SDS011;44843;44.728;10.396;2023-11-21T03:46:11;42.78;;;25.83;;
59052;SDS011;44843;44.728;10.396;2023-11-21T03:48:37;45.35;;;25.80;;
59052;SDS011;44843;44.728;10.396;2023-11-21T03:51:03;44.05;;;26.42;;
59052;SDS011;44843;44.728;10.396;2023-11-21T03:53:28;41.67;;;25.45;;
59052;SDS011;44843;44.728;10.396;2023-11-21T03:55:54;42.30;;;25.63;;
59052;SDS011;44843;44.728;10.396;2023-11-21T03:58:19;40.67;;;24.90;;
59052;SDS011;44843;44.728;10.396;2023-11-21T04:00:45;44.53;;;25.95;;
59052;SDS011;44843;44.728;10.396;2023-11-21T04:03:12;46.88;;;27.20;;
59052;SDS011;44843;44.728;10.396;2023-11-21T04:05:38;50.25;;;26.98;;
59052;SDS011;44843;44.728;10.396;2023-11-21T04:08:04;45.60;;;25.55;;
59052;SDS011;44843;44.728;10.396;2023-11-21T04:10:29;43.40;;;26.15;;
59052;SDS011;44843;44.728;10.396;2023-11-21T04:12:54;45.38;;;26.60;;
59052;SDS011;44843;44.728;10.396;2023-11-21T04:15:20;46.17;;;27.27;;
59052;SDS011;44843;44.728;10.396;2023-11-21T04:17:45;43.35;;;25.27;;
59052;SDS011;44843;44.728;10.396;2023-11-21T04:20:11;46.65;;;26.33;;
59052;SDS011;44843;44.728;10.396;2023-11-21T04:22:39;49.05;;;27.45;;
59052;SDS011;44843;44.728;10.396;2023-11-21T04:25:12;42.20;;;25.80;;
59052;SDS011;44843;44.728;10.396;2023-11-21T04:27:39;42.95;;;25.80;;
59052;SDS011;44843;44.728;10.396;2023-11-21T04:30:08;49.58;;;26.73;;
59052;SDS011;44843;44.728;10.396;2023-11-21T04:32:35;44.25;;;27.02;;
59052;SDS011;44843;44.728;10.396;2023-11-21T04:35:00;41.95;;;25.23;;
59052;SDS011;44843;44.728;10.396;2023-11-21T04:37:26;45.35;;;27.75;;
59052;SDS011;44843;44.728;10.396;2023-11-21T04:39:52;46.60;;;27.27;;
59052;SDS011;44843;44.728;10.396;2023-11-21T04:42:17;45.00;;;24.98;;
59052;SDS011;44843;44.728;10.396;2023-11-21T04:44:42;47.40;;;26.77;;
59052;SDS011;44843;44.728;10.396;2023-11-21T04:47:09;48.25;;;25.23;;
59052;SDS011;44843;44.728;10.396;2023-11-21T04:49:34;45.05;;;26.17;;
59052;SDS011;44843;44.728;10.396;2023-11-21T04:52:00;46.03;;;25.25;;
59052;SDS011;44843;44.728;10.396;2023-11-21T04:54:26;43.05;;;25.13;;
59052;SDS011;44843;44.728;10.396;2023-11-21T04:56:52;43.78;;;26.13;;
59052;SDS011;44843;44.728;10.396;2023-11-21T04:59:17;45.30;;;25.67;;
59052;SDS011;44843;44.728;10.396;2023-11-21T05:01:42;47.28;;;25.70;;
59052;SDS011;44843;44.728;10.396;2023-11-21T05:04:08;43.22;;;25.55;;
59052;SDS011;44843;44.728;10.396;2023-11-21T05:06:33;45.33;;;26.10;;
59052;SDS011;44843;44.728;10.396;2023-11-21T05:08:59;44.88;;;26.85;;
59052;SDS011;44843;44.728;10.396;2023-11-21T05:11:28;43.53;;;26.92;;
59052;SDS011;44843;44.728;10.396;2023-11-21T05:13:57;51.88;;;28.48;;
59052;SDS011;44843;44.728;10.396;2023-11-21T05:16:25;47.38;;;28.40;;
59052;SDS011;44843;44.728;10.396;2023-11-21T05:18:52;53.70;;;28.80;;
59052;SDS011;44843;44.728;10.396;2023-11-21T05:21:17;52.03;;;29.23;;
59052;SDS011;44843;44.728;10.396;2023-11-21T05:23:45;47.85;;;28.33;;
59052;SDS011;44843;44.728;10.396;2023-11-21T05:26:11;49.30;;;27.73;;
59052;SDS011;44843;44.728;10.396;2023-11-21T05:28:36;51.97;;;28.23;;
59052;SDS011;44843;44.728;10.396;2023-11-21T05:31:02;47.28;;;26.52;;
59052;SDS011;44843;44.728;10.396;2023-11-21T05:33:27;51.53;;;28.80;;
59052;SDS011;44843;44.728;10.396;2023-11-21T05:35:53;48.50;;;28.52;;
59052;SDS011;44843;44.728;10.396;2023-11-21T05:38:18;50.92;;;28.90;;
59052;SDS011;44843;44.728;10.396;2023-11-21T05:40:43;49.63;;;29.27;;
59052;SDS011;44843;44.728;10.396;2023-11-21T05:43:09;50.22;;;28.77;;
59052;SDS011;44843;44.728;10.396;2023-11-21T05:45:34;51.55;;;30.02;;
59052;SDS011;44843;44.728;10.396;2023-11-21T05:47:59;53.25;;;29.83;;
59052;SDS011;44843;44.728;10.396;2023-11-21T05:50:25;53.05;;;30.65;;
59052;SDS011;44843;44.728;10.396;2023-11-21T05:52:50;52.28;;;30.38;;
59052;SDS011;44843;44.728;10.396;2023-11-21T05:55:16;53.88;;;28.92;;
59052;SDS011;44843;44.728;10.396;2023-11-21T05:57:42;54.45;;;30.95;;
59052;SDS011;44843;44.728;10.396;2023-11-21T06:00:09;51.45;;;29.55;;
59052;SDS011;44843;44.728;10.396;2023-11-21T06:02:37;61.20;;;31.15;;
59052;SDS011;44843;44.728;10.396;2023-11-21T06:05:04;51.42;;;29.45;;
59052;SDS011;44843;44.728;10.396;2023-11-21T06:07:30;58.17;;;31.63;;
59052;SDS011;44843;44.728;10.396;2023-11-21T06:09:55;52.47;;;30.63;;
59052;SDS011;44843;44.728;10.396;2023-11-21T06:12:20;51.78;;;29.80;;
59052;SDS011;44843;44.728;10.396;2023-11-21T06:14:46;57.40;;;31.38;;
59052;SDS011;44843;44.728;10.396;2023-11-21T06:17:13;53.70;;;31.05;;
59052;SDS011;44843;44.728;10.396;2023-11-21T06:19:38;52.25;;;30.02;;
59052;SDS011;44843;44.728;10.396;2023-11-21T06:22:03;47.60;;;29.92;;
59052;SDS011;44843;44.728;10.396;2023-11-21T06:24:29;55.10;;;30.83;;
59052;SDS011;44843;44.728;10.396;2023-11-21T06:26:54;60.00;;;32.50;;
59052;SDS011;44843;44.728;10.396;2023-11-21T06:29:19;53.03;;;30.88;;
59052;SDS011;44843;44.728;10.396;2023-11-21T06:31:45;54.92;;;30.80;;
59052;SDS011;44843;44.728;10.396;2023-11-21T06:34:11;49.80;;;30.10;;
59052;SDS011;44843;44.728;10.396;2023-11-21T06:36:37;67.13;;;31.70;;
59052;SDS011;44843;44.728;10.396;2023-11-21T06:39:02;56.40;;;32.35;;
59052;SDS011;44843;44.728;10.396;2023-11-21T06:41:32;55.38;;;32.08;;
59052;SDS011;44843;44.728;10.396;2023-11-21T06:43:58;56.58;;;30.90;;
59052;SDS011;44843;44.728;10.396;2023-11-21T06:46:24;55.28;;;30.92;;
59052;SDS011;44843;44.728;10.396;2023-11-21T06:48:49;52.60;;;31.92;;
59052;SDS011;44843;44.728;10.396;2023-11-21T06:51:15;50.28;;;30.85;;
59052;SDS011;44843;44.728;10.396;2023-11-21T06:53:40;59.63;;;32.13;;
59052;SDS011;44843;44.728;10.396;2023-11-21T06:56:15;60.85;;;31.38;;
59052;SDS011;44843;44.728;10.396;2023-11-21T06:58:41;50.17;;;30.20;;
59052;SDS011;44843;44.728;10.396;2023-11-21T07:01:06;54.92;;;31.63;;
59052;SDS011;44843;44.728;10.396;2023-11-21T07:03:32;50.47;;;29.83;;
59052;SDS011;44843;44.728;10.396;2023-11-21T07:05:57;56.10;;;32.08;;
59052;SDS011;44843;44.728;10.396;2023-11-21T07:08:22;49.33;;;30.02;;
59052;SDS011;44843;44.728;10.396;2023-11-21T07:10:48;53.17;;;30.33;;
59052;SDS011;44843;44.728;10.396;2023-11-21T07:13:15;51.72;;;30.10;;
59052;SDS011;44843;44.728;10.396;2023-11-21T07:15:41;49.38;;;29.67;;
59052;SDS011;44843;44.728;10.396;2023-11-21T07:18:06;53.03;;;29.85;;
59052;SDS011;44843;44.728;10.396;2023-11-21T07:20:32;52.97;;;29.75;;
59052;SDS011;44843;44.728;10.396;2023-11-21T07:22:58;49.97;;;29.92;;
59052;SDS011;44843;44.728;10.396;2023-11-21T07:25:25;51.97;;;30.45;;
59052;SDS011;44843;44.728;10.396;2023-11-21T07:27:51;62.50;;;32.10;;
59052;SDS011;44843;44.728;10.396;2023-11-21T07:30:16;51.03;;;30.63;;
59052;SDS011;44843;44.728;10.396;2023-11-21T07:32:42;50.40;;;29.67;;
59052;SDS011;44843;44.728;10.396;2023-11-21T07:35:10;50.17;;;29.20;;
59052;SDS011;44843;44.728;10.396;2023-11-21T07:37:35;52.97;;;29.60;;
59052;SDS011;44843;44.728;10.396;2023-11-21T07:40:01;52.72;;;31.77;;
59052;SDS011;44843;44.728;10.396;2023-11-21T07:42:27;55.47;;;31.88;;
59052;SDS011;44843;44.728;10.396;2023-11-21T07:44:53;57.45;;;31.48;;
59052;SDS011;44843;44.728;10.396;2023-11-21T07:47:18;59.15;;;30.80;;
59052;SDS011;44843;44.728;10.396;2023-11-21T07:49:43;54.50;;;31.25;;
59052;SDS011;44843;44.728;10.396;2023-11-21T07:52:10;51.30;;;29.80;;
59052;SDS011;44843;44.728;10.396;2023-11-21T07:54:35;56.03;;;31.23;;
59052;SDS011;44843;44.728;10.396;2023-11-21T07:57:01;59.67;;;31.80;;
59052;SDS011;44843;44.728;10.396;2023-11-21T07:59:27;51.60;;;30.73;;
59052;SDS011;44843;44.728;10.396;2023-11-21T08:01:53;56.80;;;33.08;;
59052;SDS011;44843;44.728;10.396;2023-11-21T08:04:19;58.78;;;32.38;;
59052;SDS011;44843;44.728;10.396;2023-11-21T08:06:44;55.92;;;33.00;;
59052;SDS011;44843;44.728;10.396;2023-11-21T08:09:09;55.92;;;32.35;;
59052;SDS011;44843;44.728;10.396;2023-11-21T08:11:37;58.05;;;32.22;;
59052;SDS011;44843;44.728;10.396;2023-11-21T08:14:04;63.15;;;34.50;;
59052;SDS011;44843;44.728;10.396;2023-11-21T08:16:30;61.40;;;34.00;;
59052;SDS011;44843;44.728;10.396;2023-11-21T08:18:55;60.35;;;33.10;;
59052;SDS011;44843;44.728;10.396;2023-11-21T08:21:21;64.30;;;34.08;;
59052;SDS011;44843;44.728;10.396;2023-11-21T08:23:48;63.45;;;33.13;;
59052;SDS011;44843;44.728;10.396;2023-11-21T08:26:18;61.72;;;34.08;;
59052;SDS011;44843;44.728;10.396;2023-11-21T08:28:44;59.58;;;34.15;;
59052;SDS011;44843;44.728;10.396;2023-11-21T08:31:09;55.15;;;32.92;;
59052;SDS011;44843;44.728;10.396;2023-11-21T08:33:35;61.47;;;34.35;;
59052;SDS011;44843;44.728;10.396;2023-11-21T08:36:00;66.35;;;35.97;;
59052;SDS011;44843;44.728;10.396;2023-11-21T08:38:26;60.42;;;34.75;;
59052;SDS011;44843;44.728;10.396;2023-11-21T08:40:53;64.28;;;34.33;;
59052;SDS011;44843;44.728;10.396;2023-11-21T08:43:19;68.85;;;35.70;;
59052;SDS011;44843;44.728;10.396;2023-11-21T08:45:45;64.80;;;35.35;;
59052;SDS011;44843;44.728;10.396;2023-11-21T08:48:10;63.83;;;33.17;;
59052;SDS011;44843;44.728;10.396;2023-11-21T08:50:36;61.60;;;33.67;;
59052;SDS011;44843;44.728;10.396;2023-11-21T08:53:02;59.92;;;33.40;;
59052;SDS011;44843;44.728;10.396;2023-11-21T08:55:27;62.30;;;34.00;;
59052;SDS011;44843;44.728;10.396;2023-11-21T08:57:53;61.08;;;33.75;;
59052;SDS011;44843;44.728;10.396;2023-11-21T09:00:19;68.47;;;33.92;;
59052;SDS011;44843;44.728;10.396;2023-11-21T09:02:44;58.70;;;33.97;;
59052;SDS011;44843;44.728;10.396;2023-11-21T09:05:10;60.13;;;34.47;;
59052;SDS011;44843;44.728;10.396;2023-11-21T09:07:38;60.33;;;33.42;;
59052;SDS011;44843;44.728;10.396;2023-11-21T09:10:04;63.80;;;34.85;;
59052;SDS011;44843;44.728;10.396;2023-11-21T09:12:34;58.22;;;33.33;;
59052;SDS011;44843;44.728;10.396;2023-11-21T09:15:04;64.82;;;34.42;;
59052;SDS011;44843;44.728;10.396;2023-11-21T09:17:30;57.22;;;33.10;;
59052;SDS011;44843;44.728;10.396;2023-11-21T09:19:56;63.75;;;33.90;;
59052;SDS011;44843;44.728;10.396;2023-11-21T09:22:22;59.75;;;33.95;;
59052;SDS011;44843;44.728;10.396;2023-11-21T09:24:49;57.47;;;33.90;;
59052;SDS011;44843;44.728;10.396;2023-11-21T09:27:15;56.65;;;33.00;;
59052;SDS011;44843;44.728;10.396;2023-11-21T09:29:42;61.60;;;33.53;;
59052;SDS011;44843;44.728;10.396;2023-11-21T09:32:08;62.38;;;33.95;;
59052;SDS011;44843;44.728;10.396;2023-11-21T09:34:37;67.80;;;34.42;;
59052;SDS011;44843;44.728;10.396;2023-11-21T09:37:03;60.35;;;34.33;;
59052;SDS011;44843;44.728;10.396;2023-11-21T09:39:31;60.78;;;34.78;;
59052;SDS011;44843;44.728;10.396;2023-11-21T09:41:57;58.03;;;33.15;;
59052;SDS011;44843;44.728;10.396;2023-11-21T09:45:03;59.20;;;35.70;;
59052;SDS011;44843;44.728;10.396;2023-11-21T09:47:38;63.30;;;35.60;;
59052;SDS011;44843;44.728;10.396;2023-11-21T09:50:06;66.25;;;35.35;;
59052;SDS011;44843;44.728;10.396;2023-11-21T09:52:34;76.07;;;36.65;;
59052;SDS011;44843;44.728;10.396;2023-11-21T09:55:17;65.25;;;35.42;;
59052;SDS011;44843;44.728;10.396;2023-11-21T09:57:46;64.20;;;34.90;;
59052;SDS011;44843;44.728;10.396;2023-11-21T10:00:13;57.50;;;34.35;;
59052;SDS011;44843;44.728;10.396;2023-11-21T10:02:42;66.93;;;36.47;;
59052;SDS011;44843;44.728;10.396;2023-11-21T10:05:08;66.50;;;34.38;;
59052;SDS011;44843;44.728;10.396;2023-11-21T10:07:36;61.38;;;34.65;;
59052;SDS011;44843;44.728;10.396;2023-11-21T10:10:05;64.15;;;34.60;;
59052;SDS011;44843;44.728;10.396;2023-11-21T10:12:33;62.85;;;34.70;;
59052;SDS011;44843;44.728;10.396;2023-11-21T10:15:00;68.57;;;35.80;;
59052;SDS011;44843;44.728;10.396;2023-11-21T10:17:28;67.90;;;36.15;;
59052;SDS011;44843;44.728;10.396;2023-11-21T10:20:01;64.80;;;33.88;;
59052;SDS011;44843;44.728;10.396;2023-11-21T10:22:31;60.65;;;35.30;;
59052;SDS011;44843;44.728;10.396;2023-11-21T10:24:56;60.17;;;34.22;;
59052;SDS011;44843;44.728;10.396;2023-11-21T10:27:22;63.40;;;34.65;;
59052;SDS011;44843;44.728;10.396;2023-11-21T10:29:49;63.08;;;36.35;;
59052;SDS011;44843;44.728;10.396;2023-11-21T10:32:16;65.45;;;36.75;;
59052;SDS011;44843;44.728;10.396;2023-11-21T10:34:41;67.75;;;35.72;;
59052;SDS011;44843;44.728;10.396;2023-11-21T10:37:13;68.97;;;38.58;;
59052;SDS011;44843;44.728;10.396;2023-11-21T10:39:38;60.28;;;33.72;;
59052;SDS011;44843;44.728;10.396;2023-11-21T10:42:04;65.13;;;36.65;;
59052;SDS011;44843;44.728;10.396;2023-11-21T10:44:33;71.15;;;37.30;;
59052;SDS011;44843;44.728;10.396;2023-11-21T10:46:59;61.08;;;35.88;;
59052;SDS011;44843;44.728;10.396;2023-11-21T10:49:26;59.10;;;35.90;;
59052;SDS011;44843;44.728;10.396;2023-11-21T10:51:52;67.43;;;36.95;;
59052;SDS011;44843;44.728;10.396;2023-11-21T10:54:22;63.28;;;35.80;;
59052;SDS011;44843;44.728;10.396;2023-11-21T10:56:49;70.00;;;38.00;;
59052;SDS011;44843;44.728;10.396;2023-11-21T10:59:18;62.00;;;36.92;;
59052;SDS011;44843;44.728;10.396;2023-11-21T11:01:45;66.65;;;36.10;;
59052;SDS011;44843;44.728;10.396;2023-11-21T11:04:12;64.03;;;36.92;;
59052;SDS011;44843;44.728;10.396;2023-11-21T11:06:45;70.78;;;39.53;;
59052;SDS011;44843;44.728;10.396;2023-11-21T11:09:16;67.88;;;37.90;;
59052;SDS011;44843;44.728;10.396;2023-11-21T11:11:42;67.43;;;38.20;;
59052;SDS011;44843;44.728;10.396;2023-11-21T11:14:12;62.58;;;36.92;;
59052;SDS011;44843;44.728;10.396;2023-11-21T11:16:38;60.53;;;37.15;;
59052;SDS011;44843;44.728;10.396;2023-11-21T11:19:10;67.72;;;38.45;;
59052;SDS011;44843;44.728;10.396;2023-11-21T11:27:15;70.30;;;39.03;;
59052;SDS011;44843;44.728;10.396;2023-11-21T11:30:19;69.28;;;38.42;;
59052;SDS011;44843;44.728;10.396;2023-11-21T11:35:58;72.03;;;38.65;;
59052;SDS011;44843;44.728;10.396;2023-11-21T11:38:27;68.55;;;39.22;;
59052;SDS011;44843;44.728;10.396;2023-11-21T11:40:57;66.43;;;38.22;;
59052;SDS011;44843;44.728;10.396;2023-11-21T11:43:29;69.20;;;37.53;;
59052;SDS011;44843;44.728;10.396;2023-11-21T11:45:56;68.80;;;39.08;;
59052;SDS011;44843;44.728;10.396;2023-11-21T11:48:21;61.53;;;37.33;;
59052;SDS011;44843;44.728;10.396;2023-11-21T11:53:33;71.80;;;38.20;;
59052;SDS011;44843;44.728;10.396;2023-11-21T11:58:46;67.38;;;37.95;;
59052;SDS011;44843;44.728;10.396;2023-11-21T12:01:13;70.00;;;38.63;;
59052;SDS011;44843;44.728;10.396;2023-11-21T12:03:38;71.70;;;38.45;;
59052;SDS011;44843;44.728;10.396;2023-11-21T12:06:04;65.13;;;39.38;;
59052;SDS011;44843;44.728;10.396;2023-11-21T12:08:34;65.30;;;38.22;;
59052;SDS011;44843;44.728;10.396;2023-11-21T12:11:01;67.47;;;39.67;;
59052;SDS011;44843;44.728;10.396;2023-11-21T12:13:26;64.20;;;37.65;;
59052;SDS011;44843;44.728;10.396;2023-11-21T12:15:53;73.28;;;39.38;;
59052;SDS011;44843;44.728;10.396;2023-11-21T12:18:20;71.20;;;38.03;;
59052;SDS011;44843;44.728;10.396;2023-11-21T12:20:46;72.43;;;38.13;;
59052;SDS011;44843;44.728;10.396;2023-11-21T12:23:13;68.85;;;37.28;;
59052;SDS011;44843;44.728;10.396;2023-11-21T12:25:41;67.68;;;39.03;;
59052;SDS011;44843;44.728;10.396;2023-11-21T12:28:07;64.43;;;40.50;;
59052;SDS011;44843;44.728;10.396;2023-11-21T12:30:33;68.53;;;38.55;;
59052;SDS011;44843;44.728;10.396;2023-11-21T12:33:00;61.10;;;37.92;;
59052;SDS011;44843;44.728;10.396;2023-11-21T12:35:30;67.22;;;38.28;;
59052;SDS011;44843;44.728;10.396;2023-11-21T12:37:59;67.38;;;37.40;;
59052;SDS011;44843;44.728;10.396;2023-11-21T12:40:27;70.28;;;38.50;;
59052;SDS011;44843;44.728;10.396;2023-11-21T12:42:53;67.85;;;37.92;;
59052;SDS011;44843;44.728;10.396;2023-11-21T12:45:20;62.28;;;38.13;;
59052;SDS011;44843;44.728;10.396;2023-11-21T12:47:48;68.70;;;38.72;;
59052;SDS011;44843;44.728;10.396;2023-11-21T12:50:24;66.85;;;38.60;;
59052;SDS011;44843;44.728;10.396;2023-11-21T12:53:00;63.95;;;37.78;;
59052;SDS011;44843;44.728;10.396;2023-11-21T12:55:29;65.72;;;38.75;;
59052;SDS011;44843;44.728;10.396;2023-11-21T12:57:55;64.75;;;37.35;;
59052;SDS011;44843;44.728;10.396;2023-11-21T13:00:31;68.30;;;38.15;;
59052;SDS011;44843;44.728;10.396;2023-11-21T13:03:02;69.30;;;38.15;;
59052;SDS011;44843;44.728;10.396;2023-11-21T13:07:55;61.40;;;37.72;;
59052;SDS011;44843;44.728;10.396;2023-11-21T13:10:26;59.70;;;35.88;;
59052;SDS011;44843;44.728;10.396;2023-11-21T13:12:56;64.43;;;36.33;;
59052;SDS011;44843;44.728;10.396;2023-11-21T13:15:25;66.57;;;36.38;;
59052;SDS011;44843;44.728;10.396;2023-11-21T13:17:53;66.90;;;36.35;;
59052;SDS011;44843;44.728;10.396;2023-11-21T13:20:22;69.45;;;38.28;;
59052;SDS011;44843;44.728;10.396;2023-11-21T13:22:49;65.35;;;37.08;;
59052;SDS011;44843;44.728;10.396;2023-11-21T13:25:19;64.57;;;36.78;;
59052;SDS011;44843;44.728;10.396;2023-11-21T13:27:46;65.97;;;35.33;;
59052;SDS011;44843;44.728;10.396;2023-11-21T13:30:12;65.57;;;37.28;;
59052;SDS011;44843;44.728;10.396;2023-11-21T13:32:45;65.10;;;35.63;;
59052;SDS011;44843;44.728;10.396;2023-11-21T13:35:16;69.43;;;36.58;;
59052;SDS011;44843;44.728;10.396;2023-11-21T13:37:55;63.47;;;34.95;;
59052;SDS011;44843;44.728;10.396;2023-11-21T13:40:25;72.47;;;35.63;;
59052;SDS011;44843;44.728;10.396;2023-11-21T13:42:54;63.63;;;34.20;;
59052;SDS011;44843;44.728;10.396;2023-11-21T13:45:24;62.47;;;32.25;;
59052;SDS011;44843;44.728;10.396;2023-11-21T13:47:50;62.92;;;33.28;;
59052;SDS011;44843;44.728;10.396;2023-11-21T13:50:20;58.80;;;32.38;;
59052;SDS011;44843;44.728;10.396;2023-11-21T13:52:51;69.05;;;33.83;;
59052;SDS011;44843;44.728;10.396;2023-11-21T13:55:18;60.70;;;30.13;;
59052;SDS011;44843;44.728;10.396;2023-11-21T13:57:44;56.63;;;30.35;;
59052;SDS011;44843;44.728;10.396;2023-11-21T14:00:14;53.50;;;28.88;;
59052;SDS011;44843;44.728;10.396;2023-11-21T14:02:59;55.65;;;28.80;;
59052;SDS011;44843;44.728;10.396;2023-11-21T14:05:28;56.75;;;29.48;;
59052;SDS011;44843;44.728;10.396;2023-11-21T14:07:55;51.28;;;28.27;;
59052;SDS011;44843;44.728;10.396;2023-11-21T14:10:21;59.13;;;31.48;;
59052;SDS011;44843;44.728;10.396;2023-11-21T14:12:49;61.60;;;31.40;;
59052;SDS011;44843;44.728;10.396;2023-11-21T14:15:15;59.45;;;32.05;;
59052;SDS011;44843;44.728;10.396;2023-11-21T14:17:44;61.17;;;33.55;;
59052;SDS011;44843;44.728;10.396;2023-11-21T14:20:09;62.17;;;35.58;;
59052;SDS011;44843;44.728;10.396;2023-11-21T14:22:41;59.15;;;32.40;;
59052;SDS011;44843;44.728;10.396;2023-11-21T14:25:06;67.07;;;34.72;;